createdAt,value
2022-09-17T00:01:41.522Z,11.09
2022-09-17T00:04:10.628Z,11.10
2022-09-17T00:06:39.464Z,10.96
2022-09-17T00:09:08.329Z,11.12
2022-09-17T00:11:39.618Z,11.12
2022-09-17T00:14:10.319Z,11.13
2022-09-17T00:16:42.500Z,11.13
2022-09-17T00:19:18.081Z,11.13
2022-09-17T00:21:46.764Z,11.12
2022-09-17T00:24:16.514Z,11.11
2022-09-17T00:26:45.504Z,11.09
2022-09-17T00:29:14.368Z,11.07
2022-09-17T00:31:42.816Z,11.05
2022-09-17T00:34:12.073Z,11.03
2022-09-17T00:36:40.471Z,11.02
2022-09-17T00:39:11.651Z,11.00
2022-09-17T00:41:40.743Z,10.98
2022-09-17T00:44:44.948Z,10.94
2022-09-17T00:47:30.639Z,10.90
2022-09-17T00:50:16.067Z,10.87
2022-09-17T00:52:51.759Z,10.85
2022-09-17T00:55:24.304Z,10.83
2022-09-17T00:57:56.705Z,10.81
2022-09-17T01:00:26.303Z,10.79
2022-09-17T01:02:55.236Z,10.76
2022-09-17T01:05:47.651Z,10.72
2022-09-17T01:08:24.448Z,10.65
2022-09-17T01:11:04.075Z,10.64
2022-09-17T01:13:47.975Z,10.62
2022-09-17T01:16:23.943Z,10.60
2022-09-17T01:19:30.395Z,10.58
2022-09-17T01:22:07.299Z,10.51
2022-09-17T01:25:19.145Z,10.56
2022-09-17T01:28:23.027Z,10.56
2022-09-17T01:31:35.802Z,10.57
2022-09-17T01:34:20.935Z,10.56
2022-09-17T01:37:00.852Z,10.55
2022-09-17T01:39:44.671Z,10.55
2022-09-17T01:42:44.983Z,10.54
2022-09-17T01:45:18.708Z,10.53
2022-09-17T01:47:55.814Z,10.52
2022-09-17T01:50:29.029Z,10.51
2022-09-17T01:52:58.999Z,10.50
2022-09-17T01:55:32.839Z,10.49
2022-09-17T01:58:07.749Z,10.48
2022-09-17T02:00:41.500Z,10.47
2022-09-17T02:03:44.712Z,10.48
2022-09-17T02:06:21.819Z,10.49
2022-09-17T02:08:57.373Z,10.48
2022-09-17T02:11:26.389Z,10.48
2022-09-17T02:13:59.893Z,10.40
2022-09-17T02:16:32.910Z,10.46
2022-09-17T02:19:01.170Z,10.45
2022-09-17T02:21:49.702Z,10.45
2022-09-17T02:24:25.938Z,10.44
2022-09-17T02:27:00.073Z,10.41
2022-09-17T02:29:40.050Z,10.39
2022-09-17T02:32:08.870Z,10.37
2022-09-17T02:34:37.469Z,10.35
2022-09-17T02:37:07.242Z,10.35
2022-09-17T02:39:35.604Z,10.35
2022-09-17T02:42:25.310Z,10.34
2022-09-17T02:45:05.256Z,10.35
2022-09-17T02:48:07.027Z,10.34
2022-09-17T02:51:06.465Z,10.34
2022-09-17T02:53:42.101Z,10.35
2022-09-17T02:56:20.629Z,10.36
2022-09-17T02:59:00.916Z,10.36
2022-09-17T03:01:33.042Z,10.37
2022-09-17T03:04:04.837Z,10.38
2022-09-17T03:06:33.489Z,10.39
2022-09-17T03:09:01.613Z,10.40
2022-09-17T03:11:29.989Z,10.42
2022-09-17T03:13:59.005Z,10.43
2022-09-17T03:16:27.232Z,10.44
2022-09-17T03:18:55.561Z,10.45
2022-09-17T03:21:23.701Z,10.39
2022-09-17T03:23:51.785Z,10.47
2022-09-17T03:26:20.076Z,10.49
2022-09-17T03:28:48.190Z,10.41
2022-09-17T03:31:16.573Z,10.48
2022-09-17T03:33:44.705Z,10.48
2022-09-17T03:36:12.933Z,10.49
2022-09-17T03:38:41.201Z,10.49
2022-09-17T03:41:09.432Z,10.48
2022-09-17T03:43:37.875Z,10.47
2022-09-17T03:46:06.737Z,10.47
2022-09-17T03:48:37.348Z,10.46
2022-09-17T03:51:06.582Z,10.45
2022-09-17T03:53:35.110Z,10.43
2022-09-17T03:56:05.820Z,10.41
2022-09-17T03:58:34.124Z,10.42
2022-09-17T04:01:03.572Z,10.41
2022-09-17T04:03:32.459Z,10.39
2022-09-17T04:06:00.828Z,10.40
2022-09-17T04:08:28.963Z,10.39
2022-09-17T04:10:58.256Z,10.36
2022-09-17T04:13:26.531Z,10.33
2022-09-17T04:15:55.123Z,10.29
2022-09-17T04:18:23.292Z,10.26
2022-09-17T04:20:52.544Z,10.25
2022-09-17T04:23:20.896Z,10.24
2022-09-17T04:25:49.140Z,10.20
2022-09-17T04:28:17.309Z,10.15
2022-09-17T04:30:45.796Z,10.13
2022-09-17T04:33:13.992Z,10.11
2022-09-17T04:35:42.288Z,10.08
2022-09-17T04:38:10.403Z,10.07
2022-09-17T04:40:41.136Z,10.03
2022-09-17T04:43:10.694Z,10.05
2022-09-17T04:45:38.919Z,10.08
2022-09-17T04:48:07.027Z,10.11
2022-09-17T04:50:35.332Z,10.13
2022-09-17T04:53:03.664Z,10.15
2022-09-17T04:55:32.292Z,10.18
2022-09-17T04:58:00.408Z,10.18
2022-09-17T05:00:28.930Z,10.18
2022-09-17T05:02:57.109Z,10.20
2022-09-17T05:05:25.748Z,10.22
2022-09-17T05:07:54.013Z,10.14
2022-09-17T05:10:23.429Z,10.22
2022-09-17T05:12:54.017Z,10.23
2022-09-17T05:15:24.252Z,10.22
2022-09-17T05:17:52.496Z,10.19
2022-09-17T05:20:21.119Z,10.15
2022-09-17T05:22:53.059Z,10.11
2022-09-17T05:25:25.417Z,10.07
2022-09-17T05:27:55.037Z,10.15
2022-09-17T05:30:23.723Z,10.04
2022-09-17T05:33:00.108Z,10.04
2022-09-17T05:35:28.842Z,10.03
2022-09-17T05:38:01.396Z,10.10
2022-09-17T05:40:29.977Z,10.14
2022-09-17T05:43:00.050Z,10.20
2022-09-17T05:45:30.732Z,10.22
2022-09-17T05:48:00.867Z,10.24
2022-09-17T05:50:31.173Z,10.25
2022-09-17T05:53:07.799Z,10.27
2022-09-17T05:55:36.380Z,10.31
2022-09-17T05:58:15.872Z,10.34
2022-09-17T06:00:47.329Z,10.36
2022-09-17T06:03:18.047Z,10.36
2022-09-17T06:05:58.495Z,10.31
2022-09-17T06:08:28.910Z,10.44
2022-09-17T06:11:02.142Z,10.47
2022-09-17T06:13:33.474Z,10.53
2022-09-17T06:16:03.699Z,10.59
2022-09-17T06:18:32.489Z,10.62
2022-09-17T06:21:03.472Z,10.56
2022-09-17T06:23:37.419Z,10.67
2022-09-17T06:26:06.875Z,10.66
2022-09-17T06:28:41.200Z,10.62
2022-09-17T06:31:12.677Z,10.60
2022-09-17T06:33:41.493Z,10.60
2022-09-17T06:36:14.589Z,10.66
2022-09-17T06:38:44.089Z,10.66
2022-09-17T06:41:14.666Z,10.66
2022-09-17T06:43:43.568Z,10.69
2022-09-17T06:46:12.348Z,10.76
2022-09-17T06:48:41.756Z,10.80
2022-09-17T06:51:12.015Z,10.78
2022-09-17T06:53:41.187Z,10.81
2022-09-17T06:56:10.103Z,10.80
2022-09-17T06:58:38.674Z,10.81
2022-09-17T07:01:07.426Z,10.79
2022-09-17T07:03:35.756Z,10.87
2022-09-17T07:06:04.859Z,10.86
2022-09-17T07:08:34.686Z,10.86
2022-09-17T07:11:03.503Z,10.92
2022-09-17T07:13:31.935Z,10.98
2022-09-17T07:16:02.506Z,11.02
2022-09-17T07:18:31.380Z,11.05
2022-09-17T07:21:04.448Z,10.98
2022-09-17T07:23:35.275Z,11.05
2022-09-17T07:26:15.996Z,11.03
2022-09-17T07:28:45.569Z,11.10
2022-09-17T07:31:16.535Z,11.21
2022-09-17T07:33:45.755Z,11.30
2022-09-17T07:36:18.022Z,11.36
2022-09-17T07:38:47.368Z,11.42
2022-09-17T07:41:17.736Z,11.53
2022-09-17T07:43:46.423Z,11.63
2022-09-17T07:46:18.725Z,11.66
2022-09-17T07:48:47.972Z,11.83
2022-09-17T07:51:24.683Z,11.94
2022-09-17T07:53:54.608Z,12.07
2022-09-17T07:56:23.377Z,12.30
2022-09-17T07:58:52.168Z,12.42
2022-09-17T08:01:23.577Z,12.41
2022-09-17T08:03:53.919Z,12.33
2022-09-17T08:06:27.088Z,12.39
2022-09-17T08:08:56.822Z,12.40
2022-09-17T08:11:51.732Z,12.46
2022-09-17T08:14:16.687Z,12.57
2022-09-17T08:16:47.224Z,12.58
2022-09-17T08:19:15.630Z,12.48
2022-09-17T08:21:43.882Z,12.59
2022-09-17T08:24:12.215Z,12.60
2022-09-17T08:26:41.394Z,12.61
2022-09-17T08:29:11.417Z,12.52
2022-09-17T08:31:39.978Z,12.40
2022-09-17T08:34:09.900Z,12.55
2022-09-17T08:36:38.381Z,12.49
2022-09-17T08:39:06.926Z,12.48
2022-09-17T08:42:03.218Z,12.43
2022-09-17T08:44:41.746Z,12.30
2022-09-17T08:47:25.074Z,12.41
2022-09-17T08:49:56.706Z,12.41
2022-09-17T08:52:31.002Z,12.44
2022-09-17T08:55:18.019Z,12.50
2022-09-17T08:58:23.819Z,12.60
2022-09-17T09:01:06.350Z,12.64
2022-09-17T09:04:00.738Z,12.80
2022-09-17T09:06:34.634Z,12.84
2022-09-17T09:09:08.390Z,12.98
2022-09-17T09:11:36.814Z,13.35
2022-09-17T09:14:08.270Z,13.54
2022-09-17T09:16:41.530Z,14.10
2022-09-17T09:19:32.170Z,14.28
2022-09-17T09:22:23.394Z,14.33
2022-09-17T09:25:00.183Z,14.21
2022-09-17T09:27:32.022Z,14.07
2022-09-17T09:30:10.641Z,14.00
2022-09-17T09:32:54.548Z,13.99
2022-09-17T09:35:27.631Z,14.14
2022-09-17T09:38:20.549Z,14.23
2022-09-17T09:41:33.181Z,14.45
2022-09-17T09:44:09.887Z,14.72
2022-09-17T09:47:12.657Z,14.83
2022-09-17T09:49:53.723Z,15.00
2022-09-17T09:52:40.467Z,15.37
2022-09-17T09:55:14.780Z,15.55
2022-09-17T09:57:57.079Z,15.77
2022-09-17T10:00:37.993Z,15.77
2022-09-17T10:03:25.323Z,15.64
2022-09-17T10:06:01.165Z,15.53
2022-09-17T10:08:33.088Z,15.56
2022-09-17T10:11:02.475Z,15.82
2022-09-17T10:13:35.931Z,15.82
2022-09-17T10:16:19.400Z,15.77
2022-09-17T10:18:49.875Z,15.69
2022-09-17T10:21:40.444Z,15.61
2022-09-17T10:24:24.087Z,15.47
2022-09-17T10:27:00.887Z,15.47
2022-09-17T10:29:29.834Z,15.51
2022-09-17T10:31:59.012Z,15.75
2022-09-17T10:34:30.442Z,15.85
2022-09-17T10:37:00.073Z,15.91
2022-09-17T10:39:36.793Z,15.96
2022-09-17T10:42:14.111Z,16.13
2022-09-17T10:44:54.818Z,16.44
2022-09-17T10:47:26.633Z,16.49
2022-09-17T10:49:57.028Z,16.25
2022-09-17T10:52:30.663Z,17.06
2022-09-17T10:55:05.474Z,17.87
2022-09-17T10:57:45.543Z,18.82
2022-09-17T11:00:31.265Z,19.15
2022-09-17T11:03:26.718Z,18.86
2022-09-17T11:06:03.648Z,19.56
2022-09-17T11:08:39.055Z,20.07
2022-09-17T11:11:12.610Z,20.14
2022-09-17T11:14:05.829Z,20.25
2022-09-17T11:16:54.121Z,20.35
2022-09-17T11:19:28.165Z,20.00
2022-09-17T11:22:43.504Z,19.56
2022-09-17T11:25:32.928Z,19.31
2022-09-17T11:28:01.470Z,19.49
2022-09-17T11:30:55.048Z,19.39
2022-09-17T11:33:35.961Z,19.08
2022-09-17T11:36:16.104Z,18.79
2022-09-17T11:38:50.330Z,18.72
2022-09-17T11:41:34.144Z,18.62
2022-09-17T11:44:26.633Z,18.36
2022-09-17T11:47:03.223Z,18.98
2022-09-17T11:50:26.091Z,19.86
2022-09-17T11:53:16.362Z,20.04
2022-09-17T11:56:19.727Z,20.51
2022-09-17T11:58:57.331Z,21.66
2022-09-17T12:01:38.465Z,22.02
2022-09-17T12:04:20.350Z,21.37
2022-09-17T12:07:04.625Z,20.91
2022-09-17T12:09:36.982Z,20.40
2022-09-17T12:12:37.781Z,19.91
2022-09-17T12:15:13.971Z,19.53
2022-09-17T12:18:30.617Z,19.21
2022-09-17T12:20:56.143Z,18.70
2022-09-17T12:23:47.127Z,18.35
2022-09-17T12:26:20.691Z,18.03
2022-09-17T12:29:33.847Z,17.47
2022-09-17T12:32:39.639Z,16.16
2022-09-17T12:36:02.434Z,14.94
2022-09-17T12:39:10.662Z,13.99
2022-09-17T12:42:01.296Z,13.43
2022-09-17T12:44:51.542Z,13.25
2022-09-17T12:47:54.635Z,13.39
2022-09-17T12:50:34.872Z,14.58
2022-09-17T12:53:21.632Z,16.08
2022-09-17T12:56:12.025Z,17.60
2022-09-17T12:58:40.482Z,19.03
2022-09-17T13:01:12.133Z,19.97
2022-09-17T13:03:47.168Z,20.52
2022-09-17T13:06:51.697Z,20.69
2022-09-17T13:09:31.908Z,20.54
2022-09-17T13:12:13.545Z,20.43
2022-09-17T13:15:23.154Z,20.20
2022-09-17T13:18:12.410Z,19.60
2022-09-17T13:20:55.492Z,19.30
2022-09-17T13:23:44.790Z,18.99
2022-09-17T13:26:19.464Z,18.71
2022-09-17T13:28:50.972Z,18.48
2022-09-17T13:31:22.248Z,18.23
2022-09-17T13:33:54.879Z,17.95
2022-09-17T13:36:49.080Z,17.64
2022-09-17T13:39:40.623Z,17.45
2022-09-17T13:42:18.502Z,17.31
2022-09-17T13:45:13.481Z,17.37
2022-09-17T13:47:52.740Z,17.80
2022-09-17T13:50:41.736Z,17.91
2022-09-17T13:53:13.316Z,17.75
2022-09-17T13:55:48.292Z,17.35
2022-09-17T13:58:19.535Z,17.46
2022-09-17T14:00:55.690Z,17.61
2022-09-17T14:03:54.639Z,17.82
2022-09-17T14:06:23.127Z,18.01
2022-09-17T14:08:52.075Z,18.06
2022-09-17T14:11:22.955Z,18.12
2022-09-17T14:14:10.662Z,18.63
2022-09-17T14:16:47.006Z,18.66
2022-09-17T14:19:18.770Z,18.61
2022-09-17T14:22:00.797Z,18.87
2022-09-17T14:24:38.123Z,18.75
2022-09-17T14:27:12.348Z,18.60
2022-09-17T14:29:59.419Z,18.50
2022-09-17T14:32:51.750Z,18.68
2022-09-17T14:35:41.700Z,19.29
2022-09-17T14:38:13.354Z,19.93
2022-09-17T14:40:46.188Z,20.41
2022-09-17T14:43:40.630Z,20.89
2022-09-17T14:46:16.220Z,21.37
2022-09-17T14:48:44.432Z,21.65
2022-09-17T14:51:18.834Z,21.74
2022-09-17T14:54:06.689Z,21.93
2022-09-17T14:56:40.589Z,21.95
2022-09-17T14:59:21.320Z,22.07
2022-09-17T15:01:49.663Z,22.04
2022-09-17T15:04:28.715Z,21.85
2022-09-17T15:07:12.162Z,21.90
2022-09-17T15:09:40.406Z,21.64
2022-09-17T15:12:08.695Z,21.14
2022-09-17T15:14:40.062Z,21.06
2022-09-17T15:17:15.827Z,21.22
2022-09-17T15:19:51.634Z,21.37
2022-09-17T15:22:24.266Z,21.41
2022-09-17T15:25:26.468Z,21.67
2022-09-17T15:27:57.581Z,21.13
2022-09-17T15:30:26.459Z,20.53
2022-09-17T15:32:57.629Z,20.08
2022-09-17T15:35:30.576Z,19.47
2022-09-17T15:40:53.973Z,18.46
2022-09-17T15:43:28.358Z,17.93
2022-09-17T15:45:58.458Z,17.51
2022-09-17T15:48:26.465Z,17.02
2022-09-17T15:50:56.987Z,16.85
2022-09-17T15:53:31.183Z,16.55
2022-09-17T15:55:59.199Z,16.30
2022-09-17T15:58:35.981Z,16.05
2022-09-17T16:01:16.409Z,15.80
2022-09-17T16:03:45.902Z,15.58
2022-09-17T16:06:20.295Z,15.44
2022-09-17T16:08:58.400Z,15.33
2022-09-17T16:11:31.947Z,15.19
2022-09-17T16:14:01.314Z,15.08
2022-09-17T16:16:33.560Z,14.98
2022-09-17T16:19:02.212Z,14.82
2022-09-17T16:21:31.423Z,14.81
2022-09-17T16:23:59.583Z,14.74
2022-09-17T16:26:31.618Z,14.63
2022-09-17T16:29:04.371Z,14.65
2022-09-17T16:31:33.629Z,14.55
2022-09-17T16:34:02.022Z,14.56
2022-09-17T16:36:32.630Z,14.48
2022-09-17T16:39:02.095Z,14.40
2022-09-17T16:41:34.243Z,14.34
2022-09-17T16:44:06.803Z,14.32
2022-09-17T16:46:36.020Z,14.22
2022-09-17T16:49:04.389Z,14.29
2022-09-17T16:51:32.541Z,14.29
2022-09-17T16:54:01.025Z,14.29
2022-09-17T16:56:29.497Z,14.26
2022-09-17T16:58:57.901Z,14.21
2022-09-17T17:01:27.834Z,14.14
2022-09-17T17:03:59.618Z,14.09
2022-09-17T17:06:28.111Z,14.05
2022-09-17T17:09:01.527Z,13.94
2022-09-17T17:11:29.762Z,14.01
2022-09-17T17:13:58.124Z,13.99
2022-09-17T17:16:26.858Z,13.96
2022-09-17T17:18:55.678Z,13.94
2022-09-17T17:21:24.401Z,13.92
2022-09-17T17:23:52.873Z,13.90
2022-09-17T17:26:22.009Z,13.88
2022-09-17T17:28:50.559Z,13.85
2022-09-17T17:31:19.080Z,13.81
2022-09-17T17:33:47.744Z,13.77
2022-09-17T17:36:16.105Z,13.69
2022-09-17T17:38:44.485Z,13.68
2022-09-17T17:41:15.632Z,13.67
2022-09-17T17:43:44.224Z,13.65
2022-09-17T17:46:13.057Z,13.61
2022-09-17T17:48:41.542Z,13.58
2022-09-17T17:51:10.403Z,13.55
2022-09-17T17:53:42.881Z,13.51
2022-09-17T17:56:13.122Z,13.47
2022-09-17T17:58:41.704Z,13.42
2022-09-17T18:01:13.114Z,13.36
2022-09-17T18:03:42.203Z,13.30
2022-09-17T18:06:11.190Z,13.23
2022-09-17T18:08:42.028Z,13.20
2022-09-17T18:11:12.008Z,13.15
2022-09-17T18:13:40.485Z,13.10
2022-09-17T18:16:12.993Z,13.05
2022-09-17T18:18:44.888Z,12.98
2022-09-17T18:21:19.850Z,12.92
2022-09-17T18:23:48.902Z,12.87
2022-09-17T18:26:19.714Z,12.81
2022-09-17T18:28:48.486Z,12.74
2022-09-17T18:31:20.216Z,12.62
2022-09-17T18:34:10.181Z,12.62
2022-09-17T18:36:39.753Z,12.62
2022-09-17T18:39:52.978Z,12.56
2022-09-17T18:41:59.649Z,12.47
2022-09-17T18:44:27.905Z,12.39
2022-09-17T18:46:56.243Z,12.21
2022-09-17T18:49:25.657Z,12.22
2022-09-17T18:51:54.317Z,12.16
2022-09-17T18:54:23.039Z,12.10
2022-09-17T18:56:51.616Z,12.04
2022-09-17T18:59:20.502Z,11.99
2022-09-17T19:01:49.191Z,11.93
2022-09-17T19:04:18.476Z,11.91
2022-09-17T19:06:47.029Z,11.89
2022-09-17T19:09:15.236Z,11.86
2022-09-17T19:11:43.329Z,11.82
2022-09-17T19:14:11.900Z,11.80
2022-09-17T19:16:40.436Z,11.78
2022-09-17T19:19:09.565Z,11.73
2022-09-17T19:21:38.047Z,11.72
2022-09-17T19:24:06.443Z,11.66
2022-09-17T19:26:34.571Z,11.68
2022-09-17T19:29:03.630Z,11.65
2022-09-17T19:31:32.220Z,11.63
2022-09-17T19:34:01.292Z,11.60
2022-09-17T19:36:29.567Z,11.58
2022-09-17T19:38:58.934Z,11.56
2022-09-17T19:41:27.374Z,11.54
2022-09-17T19:43:58.196Z,11.52
2022-09-17T19:46:27.056Z,11.51
2022-09-17T19:48:57.546Z,11.48
2022-09-17T19:51:29.697Z,11.45
2022-09-17T19:53:58.375Z,11.43
2022-09-17T19:56:28.047Z,11.37
2022-09-17T19:58:56.901Z,11.33
2022-09-17T20:01:25.947Z,11.29
2022-09-17T20:03:54.165Z,11.18
2022-09-17T20:06:23.534Z,11.25
2022-09-17T20:08:53.892Z,11.25
2022-09-17T20:11:24.428Z,11.24
2022-09-17T20:14:03.378Z,11.23
2022-09-17T20:16:31.857Z,11.22
2022-09-17T20:19:00.565Z,11.22
2022-09-17T20:21:30.229Z,11.22
2022-09-17T20:23:59.360Z,11.19
2022-09-17T20:26:27.765Z,11.16
2022-09-17T20:28:56.296Z,11.17
2022-09-17T20:31:27.122Z,11.17
2022-09-17T20:33:57.417Z,11.16
2022-09-17T20:36:31.118Z,11.15
2022-09-17T20:39:22.533Z,11.14
2022-09-17T20:41:48.652Z,11.15
2022-09-17T20:44:17.979Z,11.13
2022-09-17T20:46:46.215Z,11.11
2022-09-17T20:49:14.532Z,11.09
2022-09-17T20:51:42.884Z,10.95
2022-09-17T20:54:11.356Z,11.03
2022-09-17T20:56:39.926Z,11.00
2022-09-17T20:59:25.113Z,10.96
2022-09-17T21:01:53.845Z,10.93
2022-09-17T21:04:24.192Z,10.91
2022-09-17T21:06:53.402Z,10.79
2022-09-17T21:09:22.167Z,10.76
2022-09-17T21:11:50.325Z,10.84
2022-09-17T21:14:19.571Z,10.82
2022-09-17T21:16:48.655Z,10.76
2022-09-17T21:19:16.825Z,10.72
2022-09-17T21:21:46.136Z,10.68
2022-09-17T21:24:14.367Z,10.64
2022-09-17T21:26:42.904Z,10.63
2022-09-17T21:29:11.106Z,10.59
2022-09-17T21:31:39.822Z,10.49
2022-09-17T21:34:12.011Z,10.51
2022-09-17T21:36:41.862Z,10.47
2022-09-17T21:39:15.691Z,10.45
2022-09-17T21:41:46.170Z,10.44
2022-09-17T21:44:15.030Z,10.40
2022-09-17T21:46:43.482Z,10.37
2022-09-17T21:49:13.632Z,10.31
2022-09-17T21:51:43.076Z,10.27
2022-09-17T21:54:13.840Z,10.22
2022-09-17T21:56:42.040Z,10.15
2022-09-17T21:59:13.239Z,10.06
2022-09-17T22:01:46.661Z,10.00
2022-09-17T22:04:16.823Z,9.97
2022-09-17T22:06:46.301Z,9.94
2022-09-17T22:09:18.733Z,9.94
2022-09-17T22:11:47.284Z,9.93
2022-09-17T22:14:19.696Z,9.94
2022-09-17T22:16:51.050Z,9.88
2022-09-17T22:19:20.400Z,9.93
2022-09-17T22:21:51.670Z,9.93
2022-09-17T22:24:21.382Z,9.92
2022-09-17T22:26:56.952Z,9.93
2022-09-17T22:29:28.545Z,9.95
2022-09-17T22:31:57.457Z,9.98
2022-09-17T22:34:26.759Z,9.99
2022-09-17T22:36:55.005Z,9.99
2022-09-17T22:39:23.394Z,9.99
2022-09-17T22:41:52.379Z,10.00
2022-09-17T22:44:20.850Z,10.00
2022-09-17T22:46:51.565Z,9.98
2022-09-17T22:49:20.378Z,9.98
2022-09-17T22:51:56.230Z,9.98
2022-09-17T22:54:24.410Z,9.90
2022-09-17T22:56:52.792Z,9.97
2022-09-17T22:59:24.663Z,9.97
2022-09-17T23:01:53.071Z,9.98
2022-09-17T23:04:21.513Z,10.00
2022-09-17T23:06:49.790Z,9.98
2022-09-17T23:09:17.929Z,9.98
2022-09-17T23:11:46.234Z,9.97
2022-09-17T23:14:14.824Z,9.95
2022-09-17T23:16:46.575Z,9.94
2022-09-17T23:19:17.658Z,9.94
2022-09-17T23:21:46.693Z,9.92
2022-09-17T23:24:21.053Z,9.91
2022-09-17T23:26:49.853Z,9.92
2022-09-17T23:29:18.733Z,9.83
2022-09-17T23:31:47.221Z,9.90
2022-09-17T23:34:15.371Z,9.91
2022-09-17T23:36:43.643Z,9.93
2022-09-17T23:39:12.265Z,9.93
2022-09-17T23:41:43.483Z,9.93
2022-09-17T23:44:15.704Z,9.92
2022-09-17T23:46:46.294Z,9.89
2022-09-17T23:49:15.647Z,9.86
2022-09-17T23:51:44.304Z,9.88
2022-09-17T23:54:12.564Z,9.87
2022-09-17T23:56:41.265Z,9.84
2022-09-17T23:59:10.395Z,9.82
